Time;durP1;ratioP1;P1;durP2;ratioP2;P2;SDS_P1;SDS_P2;PMS_P1;PMS_P2;Temp;Humidity;BMP_temperature;BMP_pressure;BME280_temperature;BME280_humidity;BME280_pressure;Samples;Min_cycle;Max_cycle;Signal;HPM_P1;HPM_P2
2022/10/07 00:00:39;;;;;;;1.40;1.02;;;21.10;78.30;;;;;;5113136;28;20024;-80
2022/10/07 00:03:05;;;;;;;4.32;1.52;;;21.10;78.30;;;;;;5093309;28;20501;-80
2022/10/07 00:05:30;;;;;;;5.60;1.63;;;21.10;78.30;;;;;;5093246;28;20087;-80
2022/10/07 00:07:56;;;;;;;2.35;1.02;;;21.10;78.30;;;;;;5096827;28;20105;-80
2022/10/07 00:10:22;;;;;;;4.35;1.20;;;21.10;78.40;;;;;;5113187;28;20069;-80
2022/10/07 00:12:48;;;;;;;2.88;1.20;;;21.10;78.40;;;;;;5113725;28;20475;-80
2022/10/07 00:15:14;;;;;;;3.38;1.20;;;21.10;78.50;;;;;;5114046;28;20024;-80
2022/10/07 00:17:39;;;;;;;3.35;1.40;;;21.10;78.50;;;;;;5114424;28;20034;-80
2022/10/07 00:20:06;;;;;;;4.43;1.35;;;21.10;78.60;;;;;;5113265;28;20094;-80
2022/10/07 00:22:31;;;;;;;5.72;1.25;;;21.10;78.50;;;;;;5114526;28;20042;-80
2022/10/07 00:24:57;;;;;;;2.35;1.10;;;21.10;79.50;;;;;;5114205;28;20545;-79
2022/10/07 00:27:23;;;;;;;4.35;1.50;;;21.10;78.60;;;;;;5114339;28;20106;-79
2022/10/07 00:29:48;;;;;;;1.55;0.88;;;21.10;78.60;;;;;;5114473;28;20024;-80
2022/10/07 00:32:14;;;;;;;1.73;1.13;;;21.10;78.50;;;;;;5114191;28;20030;-80
2022/10/07 00:34:40;;;;;;;6.97;1.17;;;21.10;78.50;;;;;;5114284;28;20099;-80
2022/10/07 00:37:05;;;;;;;2.50;1.08;;;21.10;78.50;;;;;;5113958;28;20032;-80
2022/10/07 00:39:31;;;;;;;1.77;1.20;;;21.10;78.50;;;;;;5112771;28;20023;-79
2022/10/07 00:41:56;;;;;;;2.88;1.13;;;21.10;78.50;;;;;;5114177;28;20020;-78
2022/10/07 00:44:31;;;;;;;5.30;0.90;;;21.10;78.50;;;;;;5073320;28;20078;-79
2022/10/07 00:47:03;;;;;;;3.53;1.20;;;21.20;78.50;;;;;;5080897;28;20025;-80
2022/10/07 00:49:30;;;;;;;2.88;1.25;;;21.10;78.50;;;;;;5076689;28;20096;-79
2022/10/07 00:51:56;;;;;;;4.60;1.15;;;21.20;78.50;;;;;;5071935;28;20049;-79
2022/10/07 00:54:22;;;;;;;1.67;1.20;;;21.10;78.40;;;;;;5071882;28;20501;-80
2022/10/07 00:56:48;;;;;;;4.15;1.35;;;21.10;78.50;;;;;;5074137;28;20028;-80
2022/10/07 00:59:14;;;;;;;3.97;1.25;;;21.10;78.50;;;;;;5091571;28;20024;-80
2022/10/07 01:01:40;;;;;;;1.95;1.10;;;21.10;78.50;;;;;;5090647;28;20612;-80
2022/10/07 01:04:06;;;;;;;3.50;1.13;;;21.10;78.50;;;;;;5090812;28;20611;-80
2022/10/07 01:06:31;;;;;;;4.95;1.38;;;21.10;78.50;;;;;;5090444;28;20059;-80
2022/10/07 01:08:57;;;;;;;4.13;1.05;;;21.10;78.50;;;;;;5101915;28;20027;-80
2022/10/07 01:11:44;;;;;;;5.45;1.20;;;21.10;78.60;;;;;;5112294;28;20031;-80
2022/10/07 01:14:10;;;;;;;3.65;1.38;;;21.10;78.60;;;;;;5113458;28;20024;-80
2022/10/07 01:17:17;;;;;;;3.38;1.20;;;21.20;78.70;;;;;;5113366;28;20030;-80
2022/10/07 01:20:03;;;;;;;4.28;1.20;;;21.10;78.60;;;;;;5112840;28;20043;-80
2022/10/07 01:22:38;;;;;;;1.95;1.10;;;21.20;78.70;;;;;;5113154;28;20027;-80
2022/10/07 01:25:24;;;;;;;5.32;1.40;;;21.10;78.70;;;;;;5111635;28;20038;-79
2022/10/07 01:27:55;;;;;;;4.97;1.17;;;21.10;78.70;;;;;;5112295;28;20031;-78
2022/10/07 01:30:20;;;;;;;2.58;1.20;;;21.20;78.70;;;;;;5111783;28;20489;-78
2022/10/07 01:32:55;;;;;;;2.55;1.08;;;21.10;78.60;;;;;;5095126;28;20112;-80
2022/10/07 01:35:24;;;;;;;4.00;1.13;;;21.20;78.70;;;;;;5075057;28;20077;-80
2022/10/07 01:37:52;;;;;;;2.90;0.95;;;21.10;78.50;;;;;;5084300;28;20107;-79
2022/10/07 01:40:23;;;;;;;7.93;1.55;;;21.20;78.50;;;;;;5065904;28;20012;-80
2022/10/07 01:42:50;;;;;;;6.75;1.20;;;21.10;78.20;;;;;;5069443;28;20057;-79
2022/10/07 01:45:20;;;;;;;6.63;1.25;;;21.10;78.30;;;;;;5063772;28;20020;-79
2022/10/07 01:47:46;;;;;;;3.50;1.13;;;21.10;78.20;;;;;;5071975;28;20441;-80
2022/10/07 01:50:12;;;;;;;6.45;1.45;;;21.10;78.20;;;;;;5087245;28;20020;-80
2022/10/07 01:52:50;;;;;;;4.03;1.10;;;21.10;78.20;;;;;;5088538;28;20059;-80
2022/10/07 01:55:31;;;;;;;6.47;1.08;;;21.10;78.20;;;;;;5087878;28;20019;-79
2022/10/07 01:58:15;;;;;;;6.28;1.63;;;21.10;78.20;;;;;;5087739;28;20028;-80
2022/10/07 02:00:46;;;;;;;4.65;1.08;;;21.00;78.10;;;;;;5088253;28;20091;-80
2022/10/07 02:03:27;;;;;;;9.20;1.42;;;21.00;78.10;;;;;;5069865;28;20016;-80
2022/10/07 02:06:09;;;;;;;4.10;1.10;;;21.00;78.10;;;;;;5087281;28;20048;-80
2022/10/07 02:08:44;;;;;;;5.32;1.10;;;21.00;78.10;;;;;;5083114;28;20048;-81
2022/10/07 02:11:21;;;;;;;4.75;1.38;;;21.00;78.10;;;;;;5087271;28;20499;-80
2022/10/07 02:13:50;;;;;;;3.40;0.90;;;21.00;78.10;;;;;;5085942;28;20024;-80
2022/10/07 02:16:25;;;;;;;3.95;1.25;;;20.90;78.10;;;;;;5085065;28;20025;-80
2022/10/07 02:18:51;;;;;;;3.28;1.00;;;20.90;78.10;;;;;;5069812;28;20012;-80
2022/10/07 02:21:19;;;;;;;4.70;1.65;;;20.90;78.20;;;;;;5087408;28;20016;-80
2022/10/07 02:23:44;;;;;;;3.05;1.20;;;20.90;78.30;;;;;;5082853;28;20017;-81
2022/10/07 02:26:12;;;;;;;7.50;1.23;;;20.90;78.30;;;;;;5084419;28;20532;-80
2022/10/07 02:28:39;;;;;;;5.25;1.20;;;20.90;78.30;;;;;;5087291;28;20028;-80
2022/10/07 02:31:05;;;;;;;2.35;0.85;;;20.90;78.40;;;;;;5088107;28;20494;-79
2022/10/07 02:33:31;;;;;;;3.13;1.02;;;20.80;78.40;;;;;;5071672;28;20490;-80
2022/10/07 02:35:58;;;;;;;4.40;1.35;;;20.80;78.40;;;;;;5090287;28;20031;-80
2022/10/07 02:38:25;;;;;;;5.78;1.02;;;20.80;78.50;;;;;;5094336;28;20024;-80
2022/10/07 02:41:04;;;;;;;3.35;1.05;;;20.80;78.60;;;;;;5077988;28;20019;-80
2022/10/07 02:43:38;;;;;;;1.65;0.90;;;20.80;78.50;;;;;;5095077;28;20078;-80
2022/10/07 02:46:09;;;;;;;3.72;1.02;;;20.80;78.50;;;;;;5094942;28;20016;-80
2022/10/07 02:48:40;;;;;;;5.13;1.75;;;20.70;78.60;;;;;;5095908;28;20036;-80
2022/10/07 02:51:08;;;;;;;5.15;1.40;;;20.70;78.60;;;;;;5078432;28;20043;-80
2022/10/07 02:53:34;;;;;;;2.97;0.98;;;20.70;78.60;;;;;;5096007;28;20040;-80
2022/10/07 02:56:00;;;;;;;4.00;1.33;;;20.70;78.60;;;;;;5094474;28;20035;-80
2022/10/07 02:58:25;;;;;;;2.88;1.30;;;20.70;78.70;;;;;;5094428;28;20100;-80
2022/10/07 03:00:54;;;;;;;4.25;1.10;;;20.60;78.60;;;;;;5094714;28;20466;-79
2022/10/07 03:03:20;;;;;;;2.25;1.00;;;20.60;78.70;;;;;;5094512;28;20024;-79
2022/10/07 03:05:48;;;;;;;4.63;1.10;;;20.60;78.70;;;;;;5094141;28;20056;-78
2022/10/07 03:08:13;;;;;;;2.22;0.95;;;20.60;78.80;;;;;;5099343;28;20027;-79
2022/10/07 03:10:39;;;;;;;5.18;1.30;;;20.60;78.80;;;;;;5105687;28;20051;-79
2022/10/07 03:13:05;;;;;;;3.17;1.05;;;20.60;78.80;;;;;;5074237;28;20016;-79
2022/10/07 03:15:31;;;;;;;2.78;1.23;;;20.60;78.90;;;;;;5075327;28;20029;-79
2022/10/07 03:17:57;;;;;;;3.15;1.08;;;20.50;78.80;;;;;;5073846;28;20028;-79
2022/10/07 03:20:22;;;;;;;1.52;0.95;;;20.60;78.90;;;;;;5073606;28;20467;-79
2022/10/07 03:22:49;;;;;;;3.45;1.05;;;20.50;78.90;;;;;;5074148;28;20025;-79
2022/10/07 03:25:14;;;;;;;2.60;1.10;;;20.50;78.90;;;;;;5073827;28;20039;-79
2022/10/07 03:27:44;;;;;;;3.88;1.10;;;20.50;79.00;;;;;;5074863;28;20005;-79
2022/10/07 03:30:10;;;;;;;3.95;1.30;;;20.50;79.00;;;;;;5074810;28;20027;-79
2022/10/07 03:32:37;;;;;;;4.07;1.20;;;20.50;79.00;;;;;;5074922;28;20406;-79
2022/10/07 03:35:03;;;;;;;2.33;0.93;;;20.50;79.00;;;;;;5074726;28;20402;-79
2022/10/07 03:37:29;;;;;;;2.63;1.00;;;20.50;79.00;;;;;;5074720;28;20024;-79
2022/10/07 03:39:55;;;;;;;4.68;1.02;;;20.40;79.10;;;;;;5074586;28;20055;-79
2022/10/07 03:42:20;;;;;;;2.83;1.05;;;20.40;79.10;;;;;;5074559;28;20043;-79
2022/10/07 03:44:48;;;;;;;1.45;1.02;;;20.40;79.10;;;;;;5075383;28;20078;-79
2022/10/07 03:47:16;;;;;;;3.25;1.27;;;20.40;79.10;;;;;;5094765;28;20017;-79
2022/10/07 03:49:42;;;;;;;4.20;1.05;;;20.40;79.10;;;;;;5092788;28;20039;-79
2022/10/07 03:52:08;;;;;;;5.30;1.30;;;20.40;79.20;;;;;;5094733;28;20059;-79
2022/10/07 03:54:33;;;;;;;3.85;1.13;;;20.30;79.20;;;;;;5094513;28;20483;-79
2022/10/07 03:56:59;;;;;;;2.40;1.05;;;20.30;79.70;;;;;;5094753;28;20508;-79
2022/10/07 03:59:25;;;;;;;2.33;1.02;;;20.30;79.20;;;;;;5094429;28;20032;-79
2022/10/07 04:01:50;;;;;;;2.05;0.80;;;20.30;79.20;;;;;;5094374;28;20028;-79
2022/10/07 04:04:16;;;;;;;3.67;0.90;;;20.30;79.20;;;;;;5094287;28;20024;-79
2022/10/07 04:06:44;;;;;;;3.70;1.00;;;20.30;79.30;;;;;;5093171;28;20059;-79
2022/10/07 04:09:13;;;;;;;2.05;1.00;;;20.30;79.40;;;;;;5107271;28;20105;-79
2022/10/07 04:11:40;;;;;;;3.47;1.08;;;20.30;79.30;;;;;;5114737;28;20042;-79
2022/10/07 04:14:06;;;;;;;2.38;0.77;;;20.30;79.40;;;;;;5114881;28;20059;-79
2022/10/07 04:16:32;;;;;;;3.42;1.55;;;20.20;79.40;;;;;;5114434;28;20051;-79
2022/10/07 04:18:58;;;;;;;3.97;1.20;;;20.20;79.40;;;;;;5114652;28;20472;-79
2022/10/07 04:21:24;;;;;;;2.47;1.27;;;20.20;79.40;;;;;;5114498;28;20103;-79
2022/10/07 04:23:49;;;;;;;2.58;0.93;;;20.20;79.40;;;;;;5114605;28;20030;-80
2022/10/07 04:26:15;;;;;;;3.47;1.02;;;20.20;79.40;;;;;;5114374;28;20486;-79
2022/10/07 04:28:41;;;;;;;3.30;1.17;;;20.20;79.50;;;;;;5114294;28;20027;-79
2022/10/07 04:31:07;;;;;;;3.65;1.10;;;20.20;79.50;;;;;;5114169;28;20058;-79
2022/10/07 04:33:33;;;;;;;2.42;1.30;;;20.10;79.50;;;;;;5112967;28;20076;-79
2022/10/07 04:36:04;;;;;;;1.85;0.98;;;20.20;79.50;;;;;;5114285;28;20445;-78
2022/10/07 04:38:31;;;;;;;3.33;1.17;;;20.10;79.50;;;;;;5091241;28;20119;-78
2022/10/07 04:40:57;;;;;;;2.58;1.00;;;20.10;79.60;;;;;;5094154;28;20411;-78
2022/10/07 04:43:23;;;;;;;2.42;1.23;;;20.10;79.70;;;;;;5092585;28;20108;-79
2022/10/07 04:45:51;;;;;;;1.85;1.10;;;20.10;79.70;;;;;;5093581;28;20020;-79
2022/10/07 04:48:17;;;;;;;3.70;1.02;;;20.10;79.70;;;;;;5092411;28;20028;-79
2022/10/07 04:50:43;;;;;;;2.65;1.15;;;20.10;79.70;;;;;;5092315;28;20107;-78
2022/10/07 04:53:09;;;;;;;2.80;1.00;;;20.10;79.70;;;;;;5092239;28;20162;-79
2022/10/07 04:55:39;;;;;;;5.15;1.15;;;20.10;79.70;;;;;;5092331;28;20402;-79
2022/10/07 04:58:05;;;;;;;3.15;0.77;;;20.10;79.80;;;;;;5093545;28;20020;-78
2022/10/07 05:00:31;;;;;;;2.42;1.10;;;20.00;79.80;;;;;;5090594;28;20020;-79
2022/10/07 05:02:57;;;;;;;3.78;1.23;;;20.00;79.80;;;;;;5075428;28;20028;-79
2022/10/07 05:05:24;;;;;;;3.08;1.10;;;20.00;79.90;;;;;;5093315;28;20145;-79
2022/10/07 05:07:50;;;;;;;1.50;0.93;;;20.00;79.80;;;;;;5094898;28;20046;-78
2022/10/07 05:10:16;;;;;;;4.72;1.17;;;20.00;79.90;;;;;;5113689;28;20424;-78
2022/10/07 05:12:42;;;;;;;1.88;0.95;;;20.00;79.90;;;;;;5113570;28;20095;-78
2022/10/07 05:15:08;;;;;;;2.42;1.00;;;20.00;80.00;;;;;;5113381;28;20094;-79
2022/10/07 05:17:34;;;;;;;3.33;0.90;;;20.00;80.00;;;;;;5112200;28;20023;-78
2022/10/07 05:20:00;;;;;;;2.55;1.20;;;20.00;80.00;;;;;;5113340;28;20027;-79
2022/10/07 05:22:26;;;;;;;3.10;1.00;;;20.00;80.10;;;;;;5113172;28;20020;-78
2022/10/07 05:24:53;;;;;;;1.88;1.00;;;19.90;80.00;;;;;;5113515;28;20091;-78
2022/10/07 05:27:18;;;;;;;1.98;0.95;;;19.90;80.00;;;;;;5112982;28;20043;-79
2022/10/07 05:29:44;;;;;;;2.90;1.15;;;19.90;80.00;;;;;;5113270;28;20363;-79
2022/10/07 05:32:10;;;;;;;3.00;1.00;;;19.90;80.00;;;;;;5113278;28;20509;-79
2022/10/07 05:34:35;;;;;;;2.40;1.15;;;19.90;80.00;;;;;;5112794;28;20062;-78
2022/10/07 05:37:01;;;;;;;2.13;0.90;;;19.90;80.10;;;;;;5113190;28;20055;-79
2022/10/07 05:39:27;;;;;;;2.08;0.82;;;19.90;80.20;;;;;;5095348;28;20095;-78
2022/10/07 05:41:52;;;;;;;5.20;1.33;;;19.90;80.20;;;;;;5081057;28;20027;-78
2022/10/07 05:44:18;;;;;;;2.22;0.82;;;19.90;80.30;;;;;;5078616;28;20478;-79
2022/10/07 05:46:43;;;;;;;1.98;0.90;;;19.90;80.40;;;;;;5078260;28;20024;-79
2022/10/07 05:49:10;;;;;;;1.98;0.77;;;19.90;80.40;;;;;;5079233;28;20046;-79
2022/10/07 05:51:36;;;;;;;4.28;0.82;;;19.90;80.40;;;;;;5082391;28;20562;-79
2022/10/07 05:54:02;;;;;;;4.85;0.85;;;19.90;80.40;;;;;;5077961;28;20091;-79
2022/10/07 05:56:27;;;;;;;2.08;0.70;;;19.90;80.40;;;;;;5080277;28;20021;-79
2022/10/07 05:58:54;;;;;;;1.73;1.02;;;19.90;80.50;;;;;;5077967;28;20025;-79
2022/10/07 06:01:21;;;;;;;2.17;1.00;;;19.90;80.50;;;;;;5079088;28;20024;-78
2022/10/07 06:03:51;;;;;;;2.33;0.80;;;19.80;80.40;;;;;;5078368;28;20016;-79
2022/10/07 06:06:17;;;;;;;3.65;0.75;;;19.80;80.50;;;;;;5080096;28;20024;-82
2022/10/07 06:08:43;;;;;;;2.45;0.68;;;19.80;80.20;;;;;;5079027;28;20021;-79
2022/10/07 06:13:53;;;;;;;3.85;0.77;;;19.70;75.50;;;;;;5077819;28;20496;-76
2022/10/07 06:16:19;;;;;;;2.80;0.70;;;19.60;74.90;;;;;;5078202;28;20024;-76
2022/10/07 06:18:46;;;;;;;2.10;0.82;;;19.60;75.40;;;;;;5082293;28;20017;-76
2022/10/07 06:21:12;;;;;;;3.80;0.75;;;19.60;75.40;;;;;;5084438;28;20021;-75
2022/10/07 06:23:37;;;;;;;3.63;0.88;;;19.50;75.80;;;;;;5081393;28;20526;-77
2022/10/07 06:26:08;;;;;;;12.23;0.80;;;19.50;75.80;;;;;;5083880;28;20058;-78
2022/10/07 06:28:38;;;;;;;1.75;0.80;;;19.50;75.80;;;;;;5086114;28;20020;-79
2022/10/07 06:31:05;;;;;;;3.55;1.17;;;19.40;75.90;;;;;;5083948;28;20020;-79
2022/10/07 06:33:31;;;;;;;2.40;0.77;;;19.40;75.80;;;;;;5084986;28;20042;-79
2022/10/07 06:35:56;;;;;;;2.88;0.80;;;19.40;75.80;;;;;;5086249;28;20020;-78
2022/10/07 06:38:22;;;;;;;2.75;0.80;;;19.40;75.80;;;;;;5085333;28;20032;-78
2022/10/07 06:41:01;;;;;;;2.97;0.90;;;19.40;75.90;;;;;;5086572;28;20032;-79
2022/10/07 06:43:27;;;;;;;2.15;0.80;;;19.30;76.10;;;;;;5066075;28;20069;-78
2022/10/07 06:46:03;;;;;;;1.33;0.68;;;19.30;75.80;;;;;;5080119;28;20027;-78
2022/10/07 06:48:31;;;;;;;12.57;2.55;;;19.30;75.90;;;;;;5050477;28;20028;-80
2022/10/07 06:51:02;;;;;;;27.92;4.50;;;19.30;76.00;;;;;;5070419;28;20036;-79
2022/10/07 06:53:27;;;;;;;26.67;4.13;;;19.30;76.40;;;;;;5067910;28;20056;-79
2022/10/07 06:55:56;;;;;;;20.73;3.45;;;19.30;76.60;;;;;;5069258;28;20028;-80
2022/10/07 06:58:27;;;;;;;17.52;3.08;;;19.20;76.70;;;;;;5071240;28;20046;-79
2022/10/07 07:00:53;;;;;;;16.45;2.85;;;19.30;76.90;;;;;;5074353;28;20043;-79
2022/10/07 07:03:19;;;;;;;18.50;3.20;;;19.20;77.00;;;;;;5090745;28;20479;-79
2022/10/07 07:05:45;;;;;;;24.48;2.85;;;19.20;77.00;;;;;;5073741;28;20031;-79
2022/10/07 07:08:10;;;;;;;22.38;3.08;;;19.20;77.10;;;;;;5078401;28;20020;-79
2022/10/07 07:10:39;;;;;;;19.90;3.83;;;19.20;77.10;;;;;;5093695;28;20081;-79
2022/10/07 07:13:06;;;;;;;17.73;3.72;;;19.20;77.20;;;;;;5110883;28;20015;-79
2022/10/07 07:15:32;;;;;;;16.50;3.42;;;19.20;77.20;;;;;;5094149;28;20059;-79
2022/10/07 07:17:58;;;;;;;17.42;3.95;;;19.20;77.30;;;;;;5110704;28;20023;-79
2022/10/07 07:20:24;;;;;;;18.13;3.47;;;19.20;77.20;;;;;;5112137;28;20454;-79
2022/10/07 07:22:51;;;;;;;15.05;3.22;;;19.10;77.20;;;;;;5111948;28;20098;-79
2022/10/07 07:25:17;;;;;;;12.98;2.95;;;19.10;77.30;;;;;;5113736;28;20047;-79
2022/10/07 07:27:45;;;;;;;15.68;3.55;;;19.10;77.20;;;;;;5115430;28;20016;-79
2022/10/07 07:30:12;;;;;;;19.00;4.07;;;19.10;77.20;;;;;;5114691;28;20470;-79
2022/10/07 07:32:38;;;;;;;15.88;3.13;;;19.10;77.30;;;;;;5114090;28;20077;-79
2022/10/07 07:35:05;;;;;;;22.95;3.60;;;19.10;77.30;;;;;;5097245;28;20473;-79
2022/10/07 07:37:30;;;;;;;16.33;3.78;;;19.10;77.30;;;;;;5115302;28;20023;-79
2022/10/07 07:39:56;;;;;;;30.02;4.70;;;19.00;77.30;;;;;;5115113;28;20398;-79
2022/10/07 07:42:22;;;;;;;14.52;3.42;;;19.00;77.40;;;;;;5115513;28;20470;-79
2022/10/07 07:44:47;;;;;;;12.55;3.08;;;19.00;77.30;;;;;;5114226;28;20058;-79
2022/10/07 07:47:15;;;;;;;13.18;3.25;;;19.00;77.20;;;;;;5114094;28;20020;-79
2022/10/07 07:49:41;;;;;;;16.42;3.47;;;19.00;77.30;;;;;;5097128;28;20401;-79
2022/10/07 07:52:07;;;;;;;15.40;3.05;;;19.00;77.30;;;;;;5096988;28;20481;-79
2022/10/07 07:54:36;;;;;;;16.35;3.58;;;19.00;77.20;;;;;;5113629;28;20107;-79
2022/10/07 07:57:02;;;;;;;11.73;2.72;;;19.00;77.20;;;;;;5113970;28;20023;-79
2022/10/07 07:59:27;;;;;;;17.50;3.40;;;19.00;77.20;;;;;;5096859;28;20035;-79
2022/10/07 08:01:53;;;;;;;13.10;3.20;;;19.00;77.20;;;;;;5101547;28;20066;-79
2022/10/07 08:04:19;;;;;;;16.77;3.20;;;19.00;77.20;;;;;;5093446;28;20390;-79
2022/10/07 08:06:44;;;;;;;12.10;3.00;;;19.00;77.20;;;;;;5093306;28;20027;-79
2022/10/07 08:09:11;;;;;;;14.07;3.25;;;18.90;78.20;;;;;;5107105;28;20042;-79
2022/10/07 08:11:37;;;;;;;14.82;3.38;;;18.90;77.20;;;;;;5114713;28;20554;-79
2022/10/07 08:14:02;;;;;;;15.30;3.25;;;18.90;77.20;;;;;;5114694;28;20054;-79
2022/10/07 08:16:28;;;;;;;13.52;3.55;;;18.90;77.20;;;;;;5114631;28;20095;-79
2022/10/07 08:18:55;;;;;;;14.15;3.13;;;18.90;77.20;;;;;;5114569;28;20385;-79
2022/10/07 08:21:22;;;;;;;13.45;3.50;;;18.90;77.20;;;;;;5113466;28;20073;-79
2022/10/07 08:23:56;;;;;;;14.07;3.67;;;18.90;77.20;;;;;;5114153;28;20065;-79
2022/10/07 08:26:22;;;;;;;11.40;3.03;;;18.90;77.20;;;;;;5113162;28;20481;-79
2022/10/07 08:28:48;;;;;;;11.25;2.97;;;18.90;77.30;;;;;;5114413;28;20080;-79
2022/10/07 08:31:15;;;;;;;11.20;3.38;;;18.80;77.20;;;;;;5113252;28;20024;-79
2022/10/07 08:33:43;;;;;;;9.73;3.15;;;18.80;77.20;;;;;;5114327;28;20038;-79
2022/10/07 08:36:11;;;;;;;12.70;2.95;;;18.80;77.20;;;;;;5112946;28;20069;-79
2022/10/07 08:38:38;;;;;;;14.10;3.15;;;18.80;77.20;;;;;;5113813;28;20492;-79
2022/10/07 08:41:16;;;;;;;11.63;2.95;;;18.80;77.20;;;;;;5114201;28;20016;-79
2022/10/07 08:43:43;;;;;;;9.27;2.80;;;18.80;77.20;;;;;;5112777;28;20062;-79
2022/10/07 08:46:12;;;;;;;16.20;3.15;;;18.80;77.20;;;;;;5096205;28;20478;-79
2022/10/07 08:48:38;;;;;;;9.68;3.05;;;18.80;77.20;;;;;;5096104;28;20089;-79
2022/10/07 08:51:24;;;;;;;10.77;2.85;;;18.80;77.20;;;;;;5114038;28;20489;-79
2022/10/07 08:53:52;;;;;;;9.93;2.88;;;18.80;77.20;;;;;;5097553;28;20052;-79
2022/10/07 08:56:18;;;;;;;14.30;3.38;;;18.80;77.70;;;;;;5096137;28;20028;-79
2022/10/07 08:59:00;;;;;;;13.15;2.80;;;18.80;77.20;;;;;;5112423;28;20023;-79
2022/10/07 09:01:44;;;;;;;10.43;2.80;;;18.70;77.20;;;;;;5105693;28;20020;-79
2022/10/07 09:04:37;;;;;;;12.15;2.97;;;18.70;77.10;;;;;;5093567;28;20024;-79
2022/10/07 09:07:13;;;;;;;14.07;2.88;;;18.70;77.10;;;;;;5091998;28;20097;-79
2022/10/07 09:09:45;;;;;;;10.60;2.58;;;18.70;77.10;;;;;;5108850;28;20022;-79
2022/10/07 09:12:18;;;;;;;9.88;2.30;;;18.70;77.20;;;;;;5113641;28;20404;-79
2022/10/07 09:14:45;;;;;;;9.13;2.45;;;18.70;77.10;;;;;;5112301;28;20027;-79
2022/10/07 09:17:31;;;;;;;11.68;3.00;;;18.70;77.20;;;;;;5112412;28;20096;-79
2022/10/07 09:19:59;;;;;;;11.10;3.10;;;18.70;77.20;;;;;;5113010;28;20035;-79
2022/10/07 09:22:30;;;;;;;8.80;2.90;;;18.70;77.20;;;;;;5112073;28;20072;-79
2022/10/07 09:25:23;;;;;;;8.23;3.10;;;18.70;77.20;;;;;;5113176;28;20094;-79
2022/10/07 09:27:50;;;;;;;11.20;2.45;;;18.70;77.20;;;;;;5110596;28;20442;-79
2022/10/07 09:30:17;;;;;;;10.32;2.97;;;18.70;77.10;;;;;;5113348;28;20076;-79
2022/10/07 09:32:44;;;;;;;13.02;2.80;;;18.70;77.20;;;;;;5112063;28;20020;-79
2022/10/07 09:35:15;;;;;;;11.82;2.50;;;18.60;77.20;;;;;;5112029;28;20015;-79
2022/10/07 09:38:10;;;;;;;9.45;2.50;;;18.70;77.20;;;;;;5094887;28;20050;-79
2022/10/07 09:43:27;;;;;;;9.35;3.17;;;18.60;77.20;;;;;;5098263;28;20513;-79
2022/10/07 09:45:53;;;;;;;9.55;2.58;;;18.60;77.20;;;;;;5094752;28;20020;-79
2022/10/07 09:48:27;;;;;;;11.68;2.60;;;18.60;77.20;;;;;;5111493;28;20023;-79
2022/10/07 09:51:11;;;;;;;6.63;2.58;;;18.60;77.10;;;;;;5111712;28;20059;-79
2022/10/07 09:53:36;;;;;;;7.03;2.45;;;18.60;77.20;;;;;;5113002;28;20044;-79
2022/10/07 09:56:02;;;;;;;9.70;2.80;;;18.60;77.20;;;;;;5094656;28;20536;-79
2022/10/07 09:58:29;;;;;;;11.82;2.97;;;18.60;77.20;;;;;;5111625;28;20031;-79
2022/10/07 10:00:56;;;;;;;9.77;2.50;;;18.60;77.30;;;;;;5107903;28;20363;-79
2022/10/07 10:03:31;;;;;;;6.47;2.40;;;18.60;77.30;;;;;;5091278;28;20035;-79
2022/10/07 10:06:01;;;;;;;10.63;2.92;;;18.60;77.30;;;;;;5074849;28;20024;-79
2022/10/07 10:08:33;;;;;;;7.43;2.28;;;18.60;77.30;;;;;;5081543;28;20023;-79
2022/10/07 10:11:01;;;;;;;6.32;2.75;;;18.60;77.30;;;;;;5111460;28;20385;-79
2022/10/07 10:13:31;;;;;;;10.73;2.40;;;18.50;77.20;;;;;;5094750;28;20028;-79
2022/10/07 10:15:58;;;;;;;7.13;2.38;;;18.50;77.20;;;;;;5111281;28;20065;-79
2022/10/07 10:18:26;;;;;;;6.28;2.47;;;18.50;77.20;;;;;;5094527;28;20057;-79
2022/10/07 10:20:52;;;;;;;11.30;2.67;;;18.50;77.20;;;;;;5112360;28;20020;-79
2022/10/07 10:23:33;;;;;;;6.90;2.28;;;18.50;77.20;;;;;;5111478;28;20052;-79
2022/10/07 10:26:26;;;;;;;7.78;2.38;;;18.50;77.20;;;;;;5094377;28;20020;-79
2022/10/07 10:29:29;;;;;;;6.63;2.10;;;18.50;77.20;;;;;;5112584;28;20019;-79
2022/10/07 10:32:00;;;;;;;10.90;2.05;;;18.50;77.20;;;;;;5112266;28;20024;-79
2022/10/07 10:34:34;;;;;;;11.10;2.65;;;18.50;77.20;;;;;;5112397;28;20371;-79
2022/10/07 10:37:02;;;;;;;6.93;2.33;;;18.50;77.20;;;;;;5112413;28;20047;-79
2022/10/07 10:39:59;;;;;;;5.43;2.17;;;18.50;77.30;;;;;;5077614;28;20478;-79
2022/10/07 10:42:53;;;;;;;7.68;2.53;;;18.50;77.20;;;;;;5097431;28;20118;-79
2022/10/07 10:45:33;;;;;;;10.13;2.30;;;18.50;77.20;;;;;;5111491;28;20024;-79
2022/10/07 10:48:20;;;;;;;6.15;2.17;;;18.50;77.30;;;;;;5110979;28;20406;-79
2022/10/07 10:50:55;;;;;;;7.57;2.28;;;18.50;77.20;;;;;;5112477;28;20061;-79
2022/10/07 10:53:39;;;;;;;10.60;2.40;;;18.50;77.20;;;;;;5112147;28;20050;-79
2022/10/07 10:56:20;;;;;;;7.22;2.65;;;18.50;77.30;;;;;;5111191;28;20019;-79
2022/10/07 10:58:57;;;;;;;7.82;2.00;;;18.50;77.20;;;;;;5113542;28;20024;-79
2022/10/07 11:01:40;;;;;;;6.03;2.33;;;18.50;77.20;;;;;;5107403;28;20497;-79
2022/10/07 11:04:21;;;;;;;9.00;2.17;;;18.50;77.30;;;;;;5094460;28;20020;-79
2022/10/07 11:06:50;;;;;;;7.43;2.08;;;18.40;77.30;;;;;;5095697;28;20103;-79
2022/10/07 11:09:19;;;;;;;5.07;2.15;;;18.50;77.30;;;;;;5091286;28;20038;-79
2022/10/07 11:11:44;;;;;;;6.68;2.08;;;18.40;77.20;;;;;;5098145;28;20024;-79
2022/10/07 11:14:16;;;;;;;6.47;2.42;;;18.40;77.20;;;;;;5114804;28;20065;-78
2022/10/07 11:17:02;;;;;;;8.20;2.47;;;18.40;77.20;;;;;;5114832;28;20442;-79
2022/10/07 11:19:34;;;;;;;6.55;1.85;;;18.40;77.20;;;;;;5097913;28;20285;-79
2022/10/07 11:22:00;;;;;;;8.52;2.05;;;18.40;77.10;;;;;;5114549;28;20024;-79
2022/10/07 11:24:39;;;;;;;7.32;2.42;;;18.40;77.20;;;;;;5097898;28;20034;-79
2022/10/07 11:27:27;;;;;;;8.93;2.50;;;18.40;77.20;;;;;;5098276;28;20019;-79
2022/10/07 11:30:07;;;;;;;7.10;2.30;;;18.40;77.30;;;;;;5115677;28;20072;-79
2022/10/07 11:33:03;;;;;;;7.82;2.47;;;18.40;77.20;;;;;;5115298;28;20099;-79
2022/10/07 11:35:33;;;;;;;10.77;2.47;;;18.40;77.20;;;;;;5115612;28;20019;-79
2022/10/07 11:38:14;;;;;;;6.82;2.15;;;18.40;77.10;;;;;;5097212;28;20015;-79
2022/10/07 11:40:48;;;;;;;7.82;2.28;;;18.40;77.10;;;;;;5114258;28;20030;-79
2022/10/07 11:43:24;;;;;;;7.28;2.45;;;18.40;77.20;;;;;;5097336;28;20100;-79
2022/10/07 11:45:51;;;;;;;7.50;2.58;;;18.40;77.20;;;;;;5114096;28;20027;-79
2022/10/07 11:48:20;;;;;;;7.35;2.20;;;18.40;77.20;;;;;;5097317;28;20015;-79
2022/10/07 11:50:53;;;;;;;6.18;2.40;;;18.40;77.10;;;;;;5114015;28;20443;-79
2022/10/07 11:53:25;;;;;;;5.50;2.05;;;18.40;77.20;;;;;;5097681;28;20525;-79
2022/10/07 11:56:19;;;;;;;6.13;1.92;;;18.40;77.20;;;;;;5097403;28;20028;-79
2022/10/07 11:58:45;;;;;;;4.72;1.63;;;18.40;77.20;;;;;;5104469;28;20114;-79
2022/10/07 12:01:29;;;;;;;6.35;1.75;;;18.40;77.20;;;;;;5090573;28;20107;-79
2022/10/07 12:04:00;;;;;;;5.57;1.70;;;18.40;77.20;;;;;;5094500;28;20512;-79
2022/10/07 12:06:26;;;;;;;5.72;2.10;;;18.40;77.20;;;;;;5094596;28;20099;-79
2022/10/07 12:08:52;;;;;;;4.10;1.80;;;18.40;77.20;;;;;;5103404;28;20059;-79
2022/10/07 12:11:18;;;;;;;7.57;1.80;;;18.30;77.10;;;;;;5113037;28;20069;-79
2022/10/07 12:13:44;;;;;;;5.22;1.90;;;18.40;77.20;;;;;;5114853;28;20019;-79
2022/10/07 12:16:22;;;;;;;5.88;2.05;;;18.30;77.10;;;;;;5113428;28;20034;-79
2022/10/07 12:19:09;;;;;;;6.13;2.13;;;18.30;77.20;;;;;;5114846;28;20023;-79
2022/10/07 12:22:03;;;;;;;6.50;1.48;;;18.30;77.20;;;;;;5114894;28;20050;-79
2022/10/07 12:24:34;;;;;;;8.13;1.98;;;18.40;77.30;;;;;;5114526;28;20500;-79
2022/10/07 12:27:16;;;;;;;6.18;2.05;;;18.30;77.30;;;;;;5096647;28;20538;-79
2022/10/07 12:29:47;;;;;;;5.45;1.77;;;18.40;77.50;;;;;;5096358;28;20024;-79
2022/10/07 12:32:44;;;;;;;5.55;1.90;;;18.30;77.40;;;;;;5114449;28;20027;-79
2022/10/07 12:35:28;;;;;;;5.28;2.00;;;18.30;77.50;;;;;;5113292;28;20668;-79
2022/10/07 12:38:26;;;;;;;5.72;2.10;;;18.40;77.60;;;;;;5114051;28;20028;-79
2022/10/07 12:41:18;;;;;;;3.85;1.90;;;18.30;77.60;;;;;;5097273;28;20040;-79
2022/10/07 12:43:56;;;;;;;4.97;1.90;;;18.40;77.60;;;;;;5111293;28;20028;-79
2022/10/07 12:46:22;;;;;;;6.22;1.65;;;18.30;78.70;;;;;;5114147;28;20023;-79
2022/10/07 12:49:02;;;;;;;4.88;1.85;;;18.40;77.80;;;;;;5095946;28;20432;-79
2022/10/07 12:51:38;;;;;;;7.93;2.13;;;18.40;77.90;;;;;;5096316;28;20027;-78
2022/10/07 12:54:14;;;;;;;5.93;1.88;;;18.40;77.90;;;;;;5096104;28;20028;-79
2022/10/07 12:56:42;;;;;;;4.45;1.60;;;18.40;78.00;;;;;;5112699;28;20032;-79
2022/10/07 13:02:07;;;;;;;3.67;1.10;;;18.40;78.00;;;;;;5101899;28;20089;-79
2022/10/07 13:05:04;;;;;;;4.22;1.65;;;18.40;78.10;;;;;;5093514;28;20024;-79
2022/10/07 13:07:30;;;;;;;4.50;1.75;;;18.40;78.10;;;;;;5092334;28;20020;-79
2022/10/07 13:10:23;;;;;;;4.00;1.60;;;18.40;78.10;;;;;;5112474;28;20619;-79